Time;durP1;ratioP1;P1;durP2;ratioP2;P2;SDS_P1;SDS_P2;PMS_P1;PMS_P2;Temp;Humidity;BMP_temperature;BMP_pressure;BME280_temperature;BME280_humidity;BME280_pressure;Samples;Min_cycle;Max_cycle;Signal;HPM_P1;HPM_P2
2021/01/31 00:00:22;;;;;;;3.00;2.00;;;;;;;-3.55;85.90;98096.78;1741992;80;21575;-81
2021/01/31 00:02:50;;;;;;;4.00;1.92;;;;;;;-3.56;85.83;98094.64;1731160;82;21140;-81
2021/01/31 00:05:20;;;;;;;1.80;1.27;;;;;;;-3.55;85.92;98093.80;1727986;80;21170;-81
2021/01/31 00:07:47;;;;;;;3.10;1.87;;;;;;;-3.54;85.83;98093.35;1770945;80;21162;-82
2021/01/31 00:10:20;;;;;;;3.52;2.08;;;;;;;-3.58;85.73;98093.84;1736328;81;21147;-81
2021/01/31 00:12:47;;;;;;;1.95;1.35;;;;;;;-3.60;85.89;98096.84;1744695;81;21163;-81
2021/01/31 00:15:18;;;;;;;2.92;1.90;;;;;;;-3.60;85.88;98085.37;1740950;81;21138;-81
2021/01/31 00:17:46;;;;;;;4.80;1.98;;;;;;;-3.61;85.91;98092.62;1746358;81;21178;-81
2021/01/31 00:20:16;;;;;;;4.40;1.98;;;;;;;-3.61;85.92;98090.08;1748848;81;21199;-81
2021/01/31 00:22:43;;;;;;;6.50;2.87;;;;;;;-3.60;86.01;98093.02;1751303;81;21143;-81
2021/01/31 00:25:13;;;;;;;3.85;2.12;;;;;;;-3.62;85.98;98085.82;1779868;79;21201;-83
2021/01/31 00:27:40;;;;;;;4.50;2.17;;;;;;;-3.62;86.01;98091.76;1744281;81;21598;-81
2021/01/31 00:30:15;;;;;;;4.72;2.35;;;;;;;-3.61;86.05;98092.62;1766550;79;21187;-81
2021/01/31 00:32:43;;;;;;;2.33;1.57;;;;;;;-3.61;86.09;98089.63;1758046;80;21198;-82
2021/01/31 00:35:12;;;;;;;4.83;2.05;;;;;;;-3.58;86.13;98090.02;1768038;80;21208;-81
2021/01/31 00:37:39;;;;;;;3.42;1.90;;;;;;;-3.56;86.09;98089.98;1767997;80;21135;-81
2021/01/31 00:40:08;;;;;;;3.62;1.90;;;;;;;-3.57;86.00;98091.69;1748546;81;21194;-81
2021/01/31 00:42:35;;;;;;;2.98;2.10;;;;;;;-3.60;85.88;98081.55;1749474;80;21232;-82
2021/01/31 00:45:07;;;;;;;3.22;2.27;;;;;;;-3.69;85.72;98081.27;1770649;80;21654;-82
2021/01/31 00:47:34;;;;;;;4.03;2.50;;;;;;;-3.77;85.71;98083.53;1770150;80;21127;-81
2021/01/31 00:50:03;;;;;;;7.33;2.85;;;;;;;-3.84;85.80;98077.27;1756829;80;21153;-83
2021/01/31 00:52:30;;;;;;;4.75;2.12;;;;;;;-3.90;85.83;98072.67;1757346;80;21165;-82
2021/01/31 00:54:57;;;;;;;4.92;2.10;;;;;;;-3.97;85.79;98082.13;1777577;80;21142;-81
2021/01/31 00:57:24;;;;;;;7.50;2.85;;;;;;;-4.03;85.85;98078.41;1778553;80;21269;-82
2021/01/31 00:59:50;;;;;;;4.10;3.05;;;;;;;-4.02;86.02;98075.42;1762193;80;21171;-82
2021/01/31 01:02:21;;;;;;;4.60;2.60;;;;;;;-4.02;86.03;98086.45;1754778;80;21145;-82
2021/01/31 01:04:49;;;;;;;4.15;2.70;;;;;;;-4.03;86.00;98079.69;1761598;80;21163;-82
2021/01/31 01:07:17;;;;;;;4.10;2.50;;;;;;;-4.02;86.09;98077.97;1757557;80;21599;-84
2021/01/31 01:09:46;;;;;;;3.72;2.35;;;;;;;-3.99;86.19;98073.66;1763117;80;21613;-82
2021/01/31 01:12:13;;;;;;;4.72;2.70;;;;;;;-3.95;86.22;98074.04;1768416;80;21126;-84
2021/01/31 01:14:41;;;;;;;4.75;2.60;;;;;;;-3.90;86.27;98076.05;1775227;80;21206;-83
2021/01/31 01:17:08;;;;;;;3.75;2.27;;;;;;;-3.86;86.35;98082.81;1749333;80;21146;-82
2021/01/31 01:19:35;;;;;;;4.30;2.60;;;;;;;-3.82;86.34;98084.43;1764480;79;21123;-82
2021/01/31 01:22:02;;;;;;;5.28;2.58;;;;;;;-3.79;86.37;98080.16;1748010;80;22375;-82
2021/01/31 01:24:28;;;;;;;3.95;2.37;;;;;;;-3.76;86.42;98080.10;1754937;80;21213;-81
2021/01/31 01:26:57;;;;;;;4.12;2.50;;;;;;;-3.73;86.43;98077.50;1758741;80;21121;-80
2021/01/31 01:29:24;;;;;;;5.03;2.33;;;;;;;-3.73;86.44;98077.50;1774696;80;21122;-81
2021/01/31 01:31:51;;;;;;;3.17;2.20;;;;;;;-3.72;86.39;98071.55;1772745;80;21551;-82
2021/01/31 01:34:18;;;;;;;4.37;2.70;;;;;;;-3.75;86.29;98066.47;1749196;80;21203;-81
2021/01/31 01:36:45;;;;;;;4.42;2.47;;;;;;;-3.82;86.22;98073.39;1739074;81;21195;-82
2021/01/31 01:39:12;;;;;;;3.95;2.58;;;;;;;-4.01;86.13;98065.18;1767531;80;21080;-82
2021/01/31 01:41:44;;;;;;;4.17;2.60;;;;;;;-4.01;86.13;98065.18;1726418;82;21167;-82
2021/01/31 01:44:12;;;;;;;4.30;2.67;;;;;;;-4.11;86.10;98073.86;1730927;82;21154;-81
2021/01/31 01:46:49;;;;;;;5.37;2.83;;;;;;;-4.22;86.12;98065.09;1752055;80;21209;-83
2021/01/31 01:49:24;;;;;;;7.12;2.90;;;;;;;-4.30;86.16;98066.47;1766821;80;21170;-81
2021/01/31 01:52:14;;;;;;;5.55;2.77;;;;;;;-4.37;86.34;98076.34;1743579;81;21196;-81
2021/01/31 01:54:44;;;;;;;5.10;2.65;;;;;;;-4.38;86.49;98073.37;1759671;80;21203;-80
2021/01/31 01:57:16;;;;;;;5.62;3.02;;;;;;;-4.34;86.66;98074.16;1729776;82;21237;-81
2021/01/31 01:59:44;;;;;;;5.60;3.25;;;;;;;-4.29;86.72;98073.23;1738330;80;22160;-82
2021/01/31 02:02:23;;;;;;;6.78;2.95;;;;;;;-4.22;86.78;98068.07;1765640;80;21564;-81
2021/01/31 02:04:50;;;;;;;7.62;3.08;;;;;;;-4.18;86.73;98076.07;1734621;80;21155;-81
2021/01/31 02:07:18;;;;;;;;;;;;;;;-4.15;86.76;98069.65;1761447;80;21237;-81
2021/01/31 02:09:51;;;;;;;7.80;3.08;;;;;;;-4.11;86.79;98075.13;1765436;80;20221;-82
2021/01/31 02:12:22;;;;;;;6.85;3.00;;;;;;;-4.08;86.85;98072.53;1759737;80;21219;-82
2021/01/31 02:14:51;;;;;;;4.83;2.85;;;;;;;-4.03;86.94;98072.03;1756809;80;21203;-82
2021/01/31 02:17:35;;;;;;;6.22;3.50;;;;;;;-3.97;86.96;98078.31;1760870;80;21185;-83
2021/01/31 02:20:35;;;;;;;6.55;3.20;;;;;;;-3.91;86.95;98078.20;1748831;81;21203;-82
2021/01/31 02:23:39;;;;;;;5.28;3.12;;;;;;;-3.85;86.97;98076.00;1782910;79;21190;-83
2021/01/31 02:26:10;;;;;;;6.35;3.55;;;;;;;-3.80;86.96;98074.22;1783962;79;21268;-81
2021/01/31 02:29:21;;;;;;;4.33;3.33;;;;;;;-3.75;86.97;98067.75;1743761;81;21488;-84
2021/01/31 02:32:14;;;;;;;7.35;3.75;;;;;;;-3.73;86.89;98068.57;1766692;79;21137;-82
2021/01/31 02:34:54;;;;;;;4.95;3.20;;;;;;;-3.73;86.78;98069.85;1715972;82;21224;-84
2021/01/31 02:37:29;;;;;;;4.78;3.42;;;;;;;-3.73;86.64;98074.95;1740254;82;21264;-82
2021/01/31 02:40:36;;;;;;;5.08;3.75;;;;;;;-3.72;86.68;98067.28;1847519;77;22809;-80
2021/01/31 02:43:10;;;;;;;6.03;4.00;;;;;;;-3.77;86.60;98065.68;1799571;77;21551;-81
2021/01/31 02:45:55;;;;;;;6.17;3.67;;;;;;;-3.80;86.59;98070.83;1835128;77;21193;-82
2021/01/31 02:48:35;;;;;;;6.08;3.52;;;;;;;-3.83;86.63;98059.81;1821695;77;21240;-82
2021/01/31 02:51:10;;;;;;;6.03;3.80;;;;;;;-3.86;86.58;98059.86;1826874;77;21108;-81
2021/01/31 02:53:42;;;;;;;5.60;3.27;;;;;;;-3.88;86.61;98062.86;1758099;80;21245;-82
2021/01/31 02:56:41;;;;;;;6.58;3.92;;;;;;;-3.91;86.55;98059.09;1772374;80;21659;-80
2021/01/31 02:59:13;;;;;;;5.87;3.83;;;;;;;-3.93;86.57;98052.33;1659912;84;21230;-82
2021/01/31 03:01:48;;;;;;;5.90;3.65;;;;;;;-3.97;86.54;98055.36;1664426;84;21192;-80
2021/01/31 03:04:44;;;;;;;6.05;3.77;;;;;;;-3.98;86.47;98046.02;1847467;77;22449;-80
2021/01/31 03:07:21;;;;;;;6.17;3.10;;;;;;;-4.10;86.40;98046.21;1810451;77;21155;-80
2021/01/31 03:10:09;;;;;;;6.50;3.60;;;;;;;-4.20;86.33;98044.66;1735046;80;22241;-84
2021/01/31 03:12:41;;;;;;;4.83;3.52;;;;;;;-4.31;86.38;98044.41;1759554;80;21121;-81
2021/01/31 03:15:13;;;;;;;9.05;4.20;;;;;;;-4.42;86.36;98051.36;1751911;79;21225;-81
2021/01/31 03:18:06;;;;;;;5.22;3.85;;;;;;;-4.51;86.45;98050.19;1757647;80;21189;-81
2021/01/31 03:20:39;;;;;;;6.37;4.10;;;;;;;-4.59;86.51;98055.84;1756222;80;21210;-81
2021/01/31 03:23:22;;;;;;;6.42;3.52;;;;;;;-4.63;86.73;98054.19;1764648;80;22193;-81
2021/01/31 03:25:57;;;;;;;6.47;3.83;;;;;;;-4.64;86.87;98057.17;1757918;80;21602;-81
2021/01/31 03:28:24;;;;;;;6.95;4.08;;;;;;;-4.60;86.99;98061.78;1748418;80;21581;-81
2021/01/31 03:30:53;;;;;;;7.42;3.80;;;;;;;-4.54;87.10;98061.70;1739044;81;21190;-82
2021/01/31 03:33:30;;;;;;;3.98;3.30;;;;;;;-4.47;87.19;98062.04;1759185;81;21223;-81
2021/01/31 03:35:58;;;;;;;6.00;4.05;;;;;;;-4.40;87.20;98071.70;1776311;80;21421;-80
2021/01/31 03:38:30;;;;;;;4.70;3.72;;;;;;;-4.35;87.17;98072.48;1769117;80;21591;-81
2021/01/31 03:41:01;;;;;;;4.92;3.75;;;;;;;-4.30;87.25;98074.11;1761700;79;21182;-83
2021/01/31 03:43:28;;;;;;;4.33;3.33;;;;;;;-4.21;87.30;98071.02;1770261;80;21179;-80
2021/01/31 03:46:09;;;;;;;7.15;3.80;;;;;;;-4.14;87.28;98079.00;1755205;80;21171;-80
2021/01/31 03:49:04;;;;;;;5.72;3.95;;;;;;;-4.08;87.27;98078.91;1745503;81;22295;-82
2021/01/31 03:51:33;;;;;;;5.60;4.05;;;;;;;-4.02;87.28;98076.26;1778115;80;21199;-80
2021/01/31 03:54:01;;;;;;;4.58;3.60;;;;;;;-3.98;87.31;98080.43;1757458;79;21135;-81
2021/01/31 03:56:45;;;;;;;5.83;3.77;;;;;;;-3.94;87.26;98078.27;1764315;80;21115;-80
2021/01/31 03:59:26;;;;;;;5.80;4.22;;;;;;;-3.91;87.32;98073.11;1728965;82;21599;-80
2021/01/31 04:01:56;;;;;;;5.15;3.62;;;;;;;-3.85;87.35;98081.94;1750311;81;21174;-79
2021/01/31 04:04:48;;;;;;;5.42;3.70;;;;;;;-3.82;87.35;98075.94;1760965;80;21189;-81
2021/01/31 04:07:20;;;;;;;5.15;3.85;;;;;;;-3.78;87.34;98083.10;1721266;83;21595;-80
2021/01/31 04:09:47;;;;;;;5.25;2.80;;;;;;;-3.74;87.37;98086.03;1720688;83;21135;-82
2021/01/31 04:12:21;;;;;;;7.05;3.62;;;;;;;-3.71;87.38;98080.87;1731163;82;21151;-82
2021/01/31 04:14:59;;;;;;;5.17;4.10;;;;;;;-3.67;87.32;98082.50;1769773;80;21169;-82
2021/01/31 04:17:26;;;;;;;4.45;3.37;;;;;;;-3.70;87.22;98080.00;1739222;82;21198;-81
2021/01/31 04:19:53;;;;;;;5.70;3.52;;;;;;;-3.73;87.21;98075.78;1737440;80;21588;-81
2021/01/31 04:22:20;;;;;;;4.40;3.40;;;;;;;-3.72;87.32;98092.80;1754201;80;21153;-81
2021/01/31 04:24:47;;;;;;;7.45;3.80;;;;;;;-3.68;87.46;98091.03;1766198;80;21210;-82
2021/01/31 04:27:15;;;;;;;5.05;3.27;;;;;;;-3.64;87.53;98081.17;1743691;80;21157;-81
2021/01/31 04:29:41;;;;;;;;;;;;;;;-3.61;87.47;98085.81;1741877;80;21236;-82
2021/01/31 04:32:08;;;;;;;5.87;3.62;;;;;;;-3.58;87.45;98081.09;1764103;80;20214;-80
2021/01/31 04:34:35;;;;;;;6.15;3.72;;;;;;;-3.57;87.51;98080.21;1749557;80;21470;-79
2021/01/31 04:37:02;;;;;;;6.83;3.50;;;;;;;-3.53;87.48;98088.20;1744939;80;21807;-81
2021/01/31 04:39:29;;;;;;;5.70;3.72;;;;;;;-3.49;87.53;98082.20;1721418;81;21162;-82
2021/01/31 04:41:56;;;;;;;6.35;3.62;;;;;;;-3.44;87.54;98084.24;1760323;80;21655;-82
2021/01/31 04:44:23;;;;;;;5.95;3.45;;;;;;;-3.41;87.57;98084.19;1741225;80;21187;-80
2021/01/31 04:47:22;;;;;;;5.60;3.30;;;;;;;-3.36;87.56;98080.30;1760219;80;21172;-80
2021/01/31 04:50:18;;;;;;;6.45;3.55;;;;;;;-3.33;87.58;98078.09;1749880;80;21695;-80
2021/01/31 04:53:14;;;;;;;7.60;3.77;;;;;;;-3.29;87.57;98081.02;1736217;82;21409;-80
2021/01/31 04:56:23;;;;;;;5.12;3.45;;;;;;;-3.26;87.56;98080.95;1770671;80;21147;-80
2021/01/31 04:58:58;;;;;;;5.53;4.17;;;;;;;-3.23;87.60;98088.11;1744502;80;21690;-81
2021/01/31 05:01:28;;;;;;;5.78;3.42;;;;;;;-3.20;87.59;98088.50;1739487;82;21187;-84
2021/01/31 05:04:10;;;;;;;5.55;3.47;;;;;;;-3.19;87.61;98082.54;1747721;81;21651;-81
2021/01/31 05:06:42;;;;;;;7.33;3.75;;;;;;;-3.17;87.59;98079.50;1730841;82;22252;-81
2021/01/31 05:09:22;;;;;;;4.05;3.45;;;;;;;-3.16;87.59;98082.48;1765566;80;21159;-80
2021/01/31 05:12:14;;;;;;;5.90;3.50;;;;;;;-3.14;87.60;98088.37;1741001;80;21540;-81
2021/01/31 05:14:54;;;;;;;5.37;3.58;;;;;;;-3.13;87.62;98084.14;1740961;80;21709;-80
2021/01/31 05:17:21;;;;;;;4.72;3.17;;;;;;;-3.12;87.65;98086.64;1762353;80;21195;-85
2021/01/31 05:19:48;;;;;;;8.05;4.00;;;;;;;-3.08;87.68;98088.70;1740911;80;21202;-81
2021/01/31 05:22:20;;;;;;;4.35;3.40;;;;;;;-3.06;87.69;98084.41;1734544;79;21135;-81
2021/01/31 05:24:48;;;;;;;4.95;3.30;;;;;;;-3.03;87.70;98084.35;1741439;82;21116;-81
2021/01/31 05:27:18;;;;;;;4.90;3.30;;;;;;;-3.00;87.74;98085.56;1756810;80;21132;-80
2021/01/31 05:29:45;;;;;;;6.85;3.50;;;;;;;-2.99;87.72;98089.83;1762486;80;21156;-84
2021/01/31 05:32:18;;;;;;;4.80;2.98;;;;;;;-2.96;87.73;98088.05;1755708;80;21212;-82
2021/01/31 05:34:49;;;;;;;3.98;2.72;;;;;;;-2.96;87.72;98085.49;1775632;80;21660;-80
2021/01/31 05:37:24;;;;;;;5.05;3.20;;;;;;;-2.94;87.73;98089.27;1741867;80;21140;-81
2021/01/31 05:40:07;;;;;;;4.05;3.02;;;;;;;-2.93;87.75;98090.53;1740642;80;21235;-81
2021/01/31 05:42:44;;;;;;;4.50;3.02;;;;;;;-2.92;87.78;98097.31;1760911;80;21198;-80
2021/01/31 05:45:22;;;;;;;5.33;3.10;;;;;;;-2.88;87.82;98093.45;1786077;80;21403;-81
2021/01/31 05:47:50;;;;;;;4.58;2.77;;;;;;;-2.85;87.81;98090.84;1757815;80;21490;-80
2021/01/31 05:50:35;;;;;;;4.37;3.08;;;;;;;-2.84;87.81;98100.17;1735110;82;21133;-81
2021/01/31 05:53:37;;;;;;;5.28;3.20;;;;;;;-2.83;87.81;98103.98;1741731;80;21607;-81
2021/01/31 05:56:27;;;;;;;5.70;3.08;;;;;;;-2.80;87.85;98103.06;1776779;80;21119;-81
2021/01/31 05:59:11;;;;;;;4.70;2.77;;;;;;;-2.77;87.85;98108.14;1738526;80;22373;-82
2021/01/31 06:02:01;;;;;;;5.22;3.20;;;;;;;-2.75;87.84;98112.75;1776268;79;21127;-81
2021/01/31 06:04:29;;;;;;;4.25;2.77;;;;;;;-2.73;87.87;98118.69;1756813;80;21627;-81
2021/01/31 06:07:10;;;;;;;4.65;2.98;;;;;;;-2.72;87.82;98112.70;1765871;80;21142;-81
2021/01/31 06:09:45;;;;;;;4.85;3.17;;;;;;;-2.71;87.86;98122.06;1780887;79;21632;-82
2021/01/31 06:12:23;;;;;;;3.70;2.83;;;;;;;-2.69;87.85;98116.47;1768429;79;21187;-82
2021/01/31 06:15:13;;;;;;;5.00;2.75;;;;;;;-2.70;87.79;98114.79;1740559;81;21187;-83
2021/01/31 06:17:41;;;;;;;3.80;2.80;;;;;;;-2.70;87.78;98119.90;1781834;79;21561;-82
2021/01/31 06:20:25;;;;;;;4.53;2.62;;;;;;;-2.70;87.79;98112.23;1754994;79;21667;-81
2021/01/31 06:22:52;;;;;;;4.37;2.80;;;;;;;-2.73;87.73;98114.41;1730034;82;21022;-81
2021/01/31 06:25:34;;;;;;;4.03;2.65;;;;;;;-2.74;87.72;98114.46;1731044;82;21179;-81
2021/01/31 06:28:15;;;;;;;4.08;2.85;;;;;;;-2.74;87.78;98120.84;1755152;79;21148;-81
2021/01/31 06:31:06;;;;;;;4.50;3.25;;;;;;;-2.75;87.73;98119.98;1762767;80;21179;-81
2021/01/31 06:33:33;;;;;;;3.27;2.65;;;;;;;-2.74;87.80;98115.73;1770794;80;21199;-81
2021/01/31 06:36:08;;;;;;;4.75;2.98;;;;;;;-2.74;87.80;98120.84;1742664;82;21203;-81
2021/01/31 06:38:52;;;;;;;6.28;3.55;;;;;;;-2.73;87.79;98127.63;1762240;80;21690;-81
2021/01/31 06:41:45;;;;;;;7.15;4.50;;;;;;;-2.75;87.79;98121.70;1749361;81;21195;-82
2021/01/31 06:44:38;;;;;;;11.57;7.12;;;;;;;-2.75;87.82;98134.47;1742455;80;21131;-82
2021/01/31 06:47:14;;;;;;;10.88;6.60;;;;;;;-2.74;87.79;98128.52;1779183;80;21191;-81
2021/01/31 06:50:17;;;;;;;14.93;8.25;;;;;;;-2.73;87.84;98132.73;1754481;80;21637;-82
2021/01/31 06:52:58;;;;;;;8.55;4.78;;;;;;;-2.72;87.86;98131.45;1769454;80;24087;-82
2021/01/31 06:55:57;;;;;;;8.75;5.25;;;;;;;-2.74;87.77;98137.01;1737019;81;21152;-81
2021/01/31 06:59:01;;;;;;;7.90;3.83;;;;;;;-2.74;87.77;98136.17;1771777;79;21578;-82
2021/01/31 07:01:51;;;;;;;6.72;3.80;;;;;;;-2.74;87.82;98138.73;1760033;79;21218;-82
2021/01/31 07:04:29;;;;;;;6.22;3.25;;;;;;;-2.74;87.85;98139.56;1768499;80;21671;-82
2021/01/31 07:07:44;;;;;;;5.42;3.08;;;;;;;-2.71;87.87;98136.11;1729935;80;21216;-81
2021/01/31 07:10:47;;;;;;;7.20;4.55;;;;;;;-2.66;87.89;98143.67;1750808;82;21154;-81
2021/01/31 07:13:43;;;;;;;6.15;3.85;;;;;;;-2.62;87.87;98143.59;1676811;82;21703;-81
2021/01/31 07:16:29;;;;;;;10.50;5.33;;;;;;;-2.61;87.87;98151.65;1691752;83;21638;-81
2021/01/31 07:19:04;;;;;;;8.95;5.33;;;;;;;-2.59;87.86;98152.47;1680994;83;22131;-81
2021/01/31 07:21:51;;;;;;;7.33;3.70;;;;;;;-2.54;87.78;98146.84;1804406;78;22868;-81
2021/01/31 07:24:35;;;;;;;4.47;3.30;;;;;;;-2.57;87.80;98159.68;1770215;79;21148;-80
2021/01/31 07:27:10;;;;;;;6.83;4.08;;;;;;;-2.55;87.83;98152.83;1760318;81;21615;-80
2021/01/31 07:29:51;;;;;;;11.93;6.50;;;;;;;-2.50;87.82;98158.67;1760399;80;21613;-80
2021/01/31 07:32:23;;;;;;;7.22;4.62;;;;;;;-2.45;87.85;98157.75;1754547;79;21135;-80
2021/01/31 07:34:59;;;;;;;7.75;5.00;;;;;;;-2.43;87.80;98156.02;1759981;81;22310;-80
2021/01/31 07:37:29;;;;;;;8.08;5.22;;;;;;;-2.40;87.75;98163.63;1775354;80;21183;-82
2021/01/31 07:40:17;;;;;;;9.40;5.10;;;;;;;-2.37;87.77;98163.56;1772797;79;22189;-84
2021/01/31 07:42:45;;;;;;;10.18;6.03;;;;;;;-2.33;87.79;98169.00;1788228;79;21179;-83
2021/01/31 07:45:20;;;;;;;8.83;5.97;;;;;;;-2.28;87.88;98160.80;1769407;79;21211;-81
2021/01/31 07:47:50;;;;;;;15.10;7.35;;;;;;;-2.16;87.98;98161.81;1767263;80;21194;-81
2021/01/31 07:50:23;;;;;;;9.03;5.47;;;;;;;-1.93;88.14;98164.31;1765671;80;21187;-83
2021/01/31 07:52:58;;;;;;;9.08;5.47;;;;;;;-1.70;88.13;98160.82;1745571;80;21213;-80
2021/01/31 07:55:33;;;;;;;7.22;5.05;;;;;;;-1.52;87.84;98165.11;1768965;79;21579;-86
2021/01/31 07:58:11;;;;;;;7.42;4.15;;;;;;;-1.45;87.52;98169.22;1774969;79;21547;-85
2021/01/31 08:00:44;;;;;;;6.60;3.72;;;;;;;-1.43;87.39;98161.04;1775199;79;21307;-85
2021/01/31 08:03:32;;;;;;;5.15;4.28;;;;;;;-1.44;87.34;98168.33;1786188;79;22129;-81
2021/01/31 08:06:10;;;;;;;5.87;4.30;;;;;;;-1.42;87.35;98164.02;1771776;79;21643;-82
2021/01/31 08:08:51;;;;;;;8.18;4.97;;;;;;;-1.45;87.16;98164.09;1759988;79;21126;-80
2021/01/31 08:11:23;;;;;;;8.40;5.00;;;;;;;-1.51;87.15;98166.77;1772122;79;21112;-85
2021/01/31 08:13:52;;;;;;;6.15;4.53;;;;;;;-1.47;87.43;98165.84;1770201;79;21633;-85
2021/01/31 08:16:49;;;;;;;8.45;4.58;;;;;;;-1.41;87.40;98163.13;1766107;79;21562;-81
2021/01/31 08:19:30;;;;;;;9.90;5.00;;;;;;;-1.42;87.23;98169.14;1762397;79;21195;-80
2021/01/31 08:22:12;;;;;;;6.58;4.80;;;;;;;-1.44;87.17;98173.45;1759633;80;21144;-80
2021/01/31 08:25:10;;;;;;;7.50;4.37;;;;;;;-1.44;87.25;98178.56;1753446;79;21199;-83
2021/01/31 08:27:43;;;;;;;6.17;4.50;;;;;;;-1.46;87.15;98185.44;1761263;81;21139;-81
2021/01/31 08:30:27;;;;;;;8.53;3.95;;;;;;;-1.45;87.18;98188.41;1773416;80;21154;-80
2021/01/31 08:33:05;;;;;;;4.47;3.70;;;;;;;-1.45;87.13;98189.70;1790533;79;21269;-82
2021/01/31 08:35:44;;;;;;;;;;;;;;;-1.44;87.09;98197.32;1766369;80;21207;-82
2021/01/31 08:38:31;;;;;;;6.42;3.92;;;;;;;-1.43;87.18;98187.92;1761219;81;20509;-80
2021/01/31 08:41:08;;;;;;;8.35;4.90;;;;;;;-1.45;87.00;98184.58;1777886;79;21198;-81
2021/01/31 08:43:57;;;;;;;7.53;4.67;;;;;;;-1.40;87.09;98196.39;1766638;79;21148;-82
2021/01/31 08:46:32;;;;;;;8.60;5.17;;;;;;;-1.31;87.18;98197.89;1781563;79;21276;-82
2021/01/31 08:49:14;;;;;;;7.20;4.67;;;;;;;-1.18;87.13;98196.69;1760588;80;21630;-83
2021/01/31 08:51:58;;;;;;;8.08;4.10;;;;;;;-1.07;87.16;98193.03;1780065;80;21596;-82
2021/01/31 08:54:26;;;;;;;7.55;5.67;;;;;;;-0.91;87.21;98193.05;1760498;80;21200;-82
2021/01/31 08:57:04;;;;;;;7.45;4.78;;;;;;;-0.77;87.36;98205.08;1766523;80;21147;-81
2021/01/31 08:59:37;;;;;;;9.25;4.53;;;;;;;-0.70;86.75;98202.77;1790736;79;21567;-83
2021/01/31 09:02:21;;;;;;;7.95;4.33;;;;;;;-0.75;86.70;98211.01;1760678;81;21484;-85
2021/01/31 09:04:59;;;;;;;6.67;4.08;;;;;;;-0.74;86.57;98212.68;1769310;79;21555;-83
2021/01/31 09:07:35;;;;;;;7.35;5.05;;;;;;;-0.78;86.52;98216.22;1790528;79;21620;-88
2021/01/31 09:10:26;;;;;;;7.92;4.78;;;;;;;-0.82;86.34;98217.16;1769799;80;21203;-81
2021/01/31 09:13:19;;;;;;;6.62;4.65;;;;;;;-0.90;86.32;98220.35;1773415;79;22162;-81
2021/01/31 09:15:46;;;;;;;6.10;4.50;;;;;;;-0.95;86.42;98224.78;1771780;79;21219;-82
2021/01/31 09:18:24;;;;;;;5.58;4.20;;;;;;;-1.01;86.37;98238.99;1778238;80;21575;-82
2021/01/31 09:20:52;;;;;;;9.20;4.60;;;;;;;-1.05;86.35;98228.43;1759495;81;21195;-84
2021/01/31 09:23:35;;;;;;;5.75;4.30;;;;;;;-1.17;86.30;98233.42;1773333;80;21591;-81
2021/01/31 09:26:04;;;;;;;7.55;4.58;;;;;;;-1.24;86.37;98237.83;1751049;80;22193;-80
2021/01/31 09:28:31;;;;;;;6.80;4.97;;;;;;;-1.29;86.62;98234.52;1784800;79;21563;-81
2021/01/31 09:31:01;;;;;;;;;;;;;;;-1.24;86.79;98245.50;1790245;79;21145;-81
2021/01/31 09:33:40;;;;;;;6.55;4.90;;;;;;;-1.19;86.67;98241.13;1744015;80;20226;-81
2021/01/31 09:36:25;;;;;;;8.63;5.10;;;;;;;-1.23;86.59;98243.78;1758339;80;21204;-82
2021/01/31 09:38:54;;;;;;;6.45;4.62;;;;;;;-1.21;86.75;98244.15;1771594;80;21227;-81
2021/01/31 09:41:24;;;;;;;6.55;4.42;;;;;;;-1.21;86.52;98253.11;1763337;79;21147;-81
2021/01/31 09:43:55;;;;;;;7.67;5.10;;;;;;;-1.18;86.63;98254.32;1792531;79;21123;-81
2021/01/31 09:46:24;;;;;;;8.63;5.25;;;;;;;-1.14;86.53;98253.39;1798904;79;21171;-81
2021/01/31 09:49:03;;;;;;;5.90;4.28;;;;;;;-1.13;86.35;98253.78;1765152;79;21199;-81
2021/01/31 09:51:31;;;;;;;6.67;4.17;;;;;;;-1.15;86.30;98250.44;1738496;80;22386;-80
2021/01/31 09:54:30;;;;;;;7.20;4.62;;;;;;;-1.10;86.48;98249.47;1760877;81;21148;-80
2021/01/31 09:57:02;;;;;;;15.88;9.05;;;;;;;-1.03;86.47;98251.02;1784353;79;21143;-82
2021/01/31 09:59:37;;;;;;;13.20;7.58;;;;;;;-0.97;86.35;98261.11;1789742;79;21818;-82
2021/01/31 10:02:12;;;;;;;18.95;9.18;;;;;;;-0.92;86.11;98248.59;1759928;80;21187;-81
2021/01/31 10:04:42;;;;;;;37.55;18.80;;;;;;;-0.86;86.05;98250.61;1774501;79;21483;-81
2021/01/31 10:07:14;;;;;;;17.80;9.65;;;;;;;-0.81;86.16;98249.61;1777977;79;21139;-82
2021/01/31 10:09:50;;;;;;;11.85;7.08;;;;;;;-0.73;86.27;98247.70;1776226;80;21209;-83
2021/01/31 10:12:28;;;;;;;13.58;8.05;;;;;;;-0.66;86.08;98241.97;1767074;79;21154;-81
2021/01/31 10:15:03;;;;;;;9.33;6.15;;;;;;;-0.62;85.84;98240.16;1779336;80;21202;-81
2021/01/31 10:17:45;;;;;;;18.27;10.15;;;;;;;-0.48;85.85;98238.07;1847567;77;22719;-80
2021/01/31 10:20:37;;;;;;;9.38;5.90;;;;;;;-0.44;86.03;98230.72;1814745;77;21175;-81
2021/01/31 10:23:20;;;;;;;9.88;6.22;;;;;;;-0.35;85.74;98230.45;1825901;77;21203;-80
2021/01/31 10:26:00;;;;;;;10.78;7.12;;;;;;;-0.15;86.07;98236.77;1830759;77;21172;-79
2021/01/31 10:28:37;;;;;;;8.30;6.42;;;;;;;0.02;85.70;98232.00;1822904;77;21129;-79
2021/01/31 10:31:05;;;;;;;12.40;6.85;;;;;;;0.12;85.88;98235.99;1835053;77;21159;-87
2021/01/31 10:33:49;;;;;;;11.73;7.40;;;;;;;0.26;85.67;98230.91;1760991;80;21185;-80
2021/01/31 10:36:25;;;;;;;18.90;10.32;;;;;;;0.20;85.31;98228.91;1737671;80;22318;-79
2021/01/31 10:39:00;;;;;;;13.83;7.72;;;;;;;0.15;85.29;98232.05;1778214;79;21273;-80
2021/01/31 10:41:27;;;;;;;12.37;8.23;;;;;;;0.17;85.29;98232.86;1752808;80;21155;-83
2021/01/31 10:44:04;;;;;;;12.30;7.92;;;;;;;0.25;85.53;98225.35;1799101;79;26752;-79
2021/01/31 10:46:33;;;;;;;21.95;9.75;;;;;;;0.35;85.21;98219.07;1779560;80;21179;-82
2021/01/31 10:49:01;;;;;;;14.55;9.33;;;;;;;0.38;85.07;98226.68;1733629;81;21260;-81
2021/01/31 10:51:32;;;;;;;13.58;8.53;;;;;;;0.38;84.76;98221.55;1777776;78;21680;-80
2021/01/31 10:54:01;;;;;;;16.23;9.15;;;;;;;0.34;85.04;98221.25;1774369;78;21144;-80
2021/01/31 10:56:28;;;;;;;15.08;9.90;;;;;;;0.31;85.07;98220.03;1782047;78;21625;-80
2021/01/31 10:58:56;;;;;;;16.75;10.55;;;;;;;0.35;85.09;98219.07;1784556;78;21197;-82
2021/01/31 11:01:24;;;;;;;16.10;9.35;;;;;;;0.39;84.86;98225.78;1778967;78;21215;-87
2021/01/31 11:03:51;;;;;;;14.78;9.85;;;;;;;0.43;85.21;98218.40;1788391;78;21691;-81
2021/01/31 11:06:21;;;;;;;16.77;8.85;;;;;;;0.59;85.44;98223.47;1750806;81;21171;-81
2021/01/31 11:08:53;;;;;;;18.27;10.00;;;;;;;0.73;85.10;98219.61;1782522;78;21560;-81
2021/01/31 11:11:24;;;;;;;18.65;11.28;;;;;;;0.69;84.59;98215.47;1724244;81;21154;-82
2021/01/31 11:13:50;;;;;;;14.00;9.08;;;;;;;0.76;84.41;98211.83;1779131;80;21204;-80
2021/01/31 11:16:18;;;;;;;12.45;9.50;;;;;;;0.70;84.28;98217.13;1779936;80;21180;-81
2021/01/31 11:18:46;;;;;;;14.40;9.63;;;;;;;0.60;84.27;98214.86;1776488;79;21179;-82
2021/01/31 11:21:23;;;;;;;14.50;9.33;;;;;;;0.61;84.33;98204.97;1757672;80;21252;-81
2021/01/31 11:23:53;;;;;;;13.78;9.25;;;;;;;0.58;84.37;98205.07;1743488;80;21160;-81
2021/01/31 11:26:21;;;;;;;14.50;9.65;;;;;;;0.42;83.92;98214.12;1763139;80;21252;-82
2021/01/31 11:28:48;;;;;;;41.30;20.85;;;;;;;0.26;84.02;98211.66;1759580;80;21187;-81
2021/01/31 11:31:15;;;;;;;18.95;11.55;;;;;;;0.12;84.07;98212.89;1768848;80;21108;-80
2021/01/31 11:33:42;;;;;;;17.32;10.25;;;;;;;0.08;84.34;98208.72;1755117;81;21229;-80
2021/01/31 11:36:11;;;;;;;16.65;10.05;;;;;;;0.00;84.16;98204.28;1756866;81;21227;-79
2021/01/31 11:38:38;;;;;;;15.65;9.85;;;;;;;-0.10;84.39;98206.70;1762259;81;21205;-82
2021/01/31 11:41:05;;;;;;;12.68;8.80;;;;;;;-0.13;84.67;98218.34;1759999;80;21731;-80
2021/01/31 11:43:34;;;;;;;12.60;7.83;;;;;;;-0.12;84.93;98206.73;1730943;81;21168;-81
2021/01/31 11:46:04;;;;;;;18.20;11.08;;;;;;;-0.05;85.06;98192.02;1755731;80;21192;-81
2021/01/31 11:48:32;;;;;;;12.93;9.40;;;;;;;0.01;84.57;98196.97;1767471;80;21198;-80
2021/01/31 11:50:59;;;;;;;9.75;7.70;;;;;;;-0.03;84.64;98191.51;1771787;80;21194;-80
2021/01/31 11:53:28;;;;;;;10.28;7.00;;;;;;;0.01;84.61;98194.41;1761411;80;21504;-79
2021/01/31 11:55:54;;;;;;;12.10;6.85;;;;;;;0.06;84.91;98199.41;1744083;80;21204;-80
2021/01/31 11:58:21;;;;;;;9.43;6.55;;;;;;;0.18;84.95;98192.17;1752498;80;21603;-81
2021/01/31 12:00:49;;;;;;;9.90;6.72;;;;;;;0.23;84.53;98191.21;1728589;82;21130;-80
2021/01/31 12:03:17;;;;;;;9.93;6.70;;;;;;;0.17;84.42;98190.50;1786927;79;21676;-80
2021/01/31 12:05:44;;;;;;;11.85;7.55;;;;;;;0.12;84.42;98192.36;1752116;81;21132;-91
2021/01/31 12:08:11;;;;;;;9.05;7.05;;;;;;;0.07;84.42;98194.22;1777214;80;21162;-80
2021/01/31 12:10:38;;;;;;;12.45;6.87;;;;;;;0.03;84.57;98187.51;1750443;81;21207;-81
2021/01/31 12:13:07;;;;;;;13.13;10.53;;;;;;;0.10;84.79;98188.16;1747241;81;21139;-81